ENEV

Harstad / Narvik , Evenes Airport

Evenes, Norway
METAR ENEV 211520Z AUTO 21007KT 9999 OVC090/// 07/01 Q1001 RMK WIND 1400FT VRB02KT
Observed Flight Rules
Apr-21 @ 15:20 UTC (20 minutes ago) Visual Flight Rules
Wind Visibility Clouds
210° at 7 knots 10,000+ meters
  • Overcast at 9,000' AGL
Temperatures Readings
Current 7°C / 45°F
Dewpoint 1°C / 34°F
Humidity 66%
Altimeter 29.56" Hg
Pressure 1001 hPa
Elevation 26
METAR ENEV 211520Z AUTO 21007KT 9999 OVC090/// 07/01 Q1001 RMK WIND 1400FT VRB02KT
Observed Flight Rules
Apr-21 @ 15:20 UTC
(20 minutes ago)
VFR
Wind Visibility
210° at 7 knots 10,000+ meters
Clouds
  • Overcast at 9,000' AGL
Temperature Dewpoint
7°C / 45°F 1°C / 34°F
Humidity Altimeter Pressure
66% 29.56" Hg 1001 hPa